Flight Track Log - Related Links

Times and Time Zones

All times are in EDT time to prevent confusion due to time zone crossing. See the KAP66 flight status page for this flight to view local times or setup timezone preferences in your user account.

Time Position Orientation Groundspeed Altitude Reporting Facility
EDT Latitude Longitude Course Direction KTS MPH feet Rate Location/Type
Tue 04:19:42 PM 42.3333 -70.9500 125° Southeast 107 123 1,100  Level KA90
Tue 04:20:48 PM 42.3167 -70.9167 124° Southeast 118 136 1,600 476 Climbing KA90
Tue 04:21:48 PM 42.3000 -70.8833 124° Southeast 129 148 2,100 500 Climbing KA90
Tue 04:22:48 PM 42.2667 -70.8667 160° South 132 152 2,600 454 Climbing KA90
Tue 04:23:47 PM 42.2333 -70.8333 143° Southeast 136 157 3,000 450 Climbing KA90
Tue 04:24:48 PM 42.2000 -70.8167 160° South 142 163 3,500 472 Climbing KA90
Tue 04:25:54 PM 42.1500 -70.7833 154° Southeast 144 166 4,000 455 Climbing KA90
Tue 04:27:00 PM 42.1133 -70.7533 116° Southeast  Level Estimated
Tue 04:34:00 PM 41.8796 -70.5628 114° Southeast  Level Estimated
Tue 04:35:00 PM 41.8925 -70.5133 71° East  Level FlightAware Approximate
Tue 04:36:00 PM 41.9054 -70.4639 71° East  Level FlightAware Approximate
Tue 04:37:00 PM 41.9183 -70.4143 71° East  Level FlightAware Approximate
Tue 04:38:00 PM 41.9312 -70.3648 71° East  Level FlightAware Approximate
Tue 04:39:00 PM 41.9440 -70.3153 71° East  Level FlightAware Approximate
Tue 04:40:00 PM 41.9569 -70.2657 71° East  Level FlightAware Approximate
Tue 04:41:00 PM 41.9187 -70.2544 180° South  Level Estimated
Tue 04:42:00 PM 41.8841 -70.2303 153° Southeast  Level FlightAware Approximate
Tue 04:43:00 PM 41.8494 -70.2061 153° Southeast  Level FlightAware Approximate
Tue 04:44:00 PM 41.8148 -70.1821 153° Southeast  Level FlightAware Approximate
Tue 04:45:00 PM 41.7801 -70.1580 153° Southeast  Level FlightAware Approximate
Tue 04:46:00 PM 41.7454 -70.1339 153° Southeast  Level FlightAware Approximate
Tue 04:47:00 PM 41.7108 -70.1099 153° Southeast  Level FlightAware Approximate
Tue 04:48:00 PM 41.6761 -70.0859 153° Southeast  Level FlightAware Approximate
Tue 04:49:00 PM 41.6414 -70.0619 153° Southeast  Level FlightAware Approximate
Tue 04:50:00 PM 41.6067 -70.0380 153° Southeast  Level FlightAware Approximate
Tue 04:51:00 PM 41.5995 -70.0334 189° South  Level FlightAware Approximate
Tue 04:52:00 PM 41.5609 -70.0412 189° South  Level FlightAware Approximate
Tue 04:53:00 PM 41.5223 -70.0489 189° South  Level FlightAware Approximate
Tue 04:54:00 PM 41.4833 -70.0500 180° South  Level FlightAware Approximate
Tue 04:55:00 PM 41.4443 -70.0500 180° South  Level FlightAware Approximate
Tue 04:56:00 PM 41.4052 -70.0500 180° South  Level FlightAware Approximate
Tue 04:57:00 PM 41.3662 -70.0500 180° South  Level FlightAware Approximate
Tue 04:58:00 PM 41.3271 -70.0500 180° South  Level FlightAware Approximate

Login

Don't have an account? Register now (free) for customized features, flight alerts, and more!